sensor_id;sensor_type;location;lat;lon;timestamp;pressure;altitude;pressure_sealevel;temperature;humidity
7109;BME280;29079;41.930;25.558;2022-07-30T00:00:47;99536.50;;;23.07;50.38
7109;BME280;29079;41.930;25.558;2022-07-30T00:03:18;99544.06;;;23.05;50.38
7109;BME280;29079;41.930;25.558;2022-07-30T00:05:48;99545.63;;;22.88;50.77
7109;BME280;29079;41.930;25.558;2022-07-30T00:08:18;99539.44;;;23.06;50.38
7109;BME280;29079;41.930;25.558;2022-07-30T00:10:49;99540.50;;;23.11;50.26
7109;BME280;29079;41.930;25.558;2022-07-30T00:13:19;99539.44;;;23.06;50.37
7109;BME280;29079;41.930;25.558;2022-07-30T00:15:51;99536.56;;;23.01;50.69
7109;BME280;29079;41.930;25.558;2022-07-30T00:18:20;99529.31;;;22.81;50.77
7109;BME280;29079;41.930;25.558;2022-07-30T00:20:51;99541.00;;;22.88;50.70
7109;BME280;29079;41.930;25.558;2022-07-30T00:23:24;99537.03;;;22.91;50.58
7109;BME280;29079;41.930;25.558;2022-07-30T00:25:54;99536.25;;;22.77;51.02
7109;BME280;29079;41.930;25.558;2022-07-30T00:28:24;99537.53;;;22.74;51.04
7109;BME280;29079;41.930;25.558;2022-07-30T00:30:55;99535.03;;;22.66;51.42
7109;BME280;29079;41.930;25.558;2022-07-30T00:33:25;99522.31;;;22.60;51.36
7109;BME280;29079;41.930;25.558;2022-07-30T00:35:55;99534.47;;;22.51;51.93
7109;BME280;29079;41.930;25.558;2022-07-30T00:38:25;99539.47;;;22.54;51.94
7109;BME280;29079;41.930;25.558;2022-07-30T00:40:56;99529.59;;;22.66;51.70
7109;BME280;29079;41.930;25.558;2022-07-30T00:43:27;99529.41;;;22.61;51.73
7109;BME280;29079;41.930;25.558;2022-07-30T00:45:59;99532.16;;;22.54;51.94
7109;BME280;29079;41.930;25.558;2022-07-30T00:48:29;99527.59;;;22.48;51.99
7109;BME280;29079;41.930;25.558;2022-07-30T00:50:59;99531.78;;;22.44;52.13
7109;BME280;29079;41.930;25.558;2022-07-30T00:53:30;99517.56;;;22.42;51.98
7109;BME280;29079;41.930;25.558;2022-07-30T00:56:01;99522.38;;;22.33;52.37
7109;BME280;29079;41.930;25.558;2022-07-30T00:58:32;99515.03;;;22.40;52.30
7109;BME280;29079;41.930;25.558;2022-07-30T01:01:03;99510.22;;;22.29;52.82
7109;BME280;29079;41.930;25.558;2022-07-30T01:03:34;99498.34;;;22.23;52.63
7109;BME280;29079;41.930;25.558;2022-07-30T01:06:05;99504.22;;;22.14;52.60
7109;BME280;29079;41.930;25.558;2022-07-30T01:08:42;99517.38;;;22.10;52.84
7109;BME280;29079;41.930;25.558;2022-07-30T01:11:12;99517.22;;;21.91;53.58
7109;BME280;29079;41.930;25.558;2022-07-30T01:13:43;99517.59;;;22.08;53.11
7109;BME280;29079;41.930;25.558;2022-07-30T01:16:15;99517.78;;;22.27;52.67
7109;BME280;29079;41.930;25.558;2022-07-30T01:18:46;99513.81;;;22.36;52.31
7109;BME280;29079;41.930;25.558;2022-07-30T01:21:37;99523.00;;;22.22;52.69
7109;BME280;29079;41.930;25.558;2022-07-30T01:24:19;99513.41;;;22.13;53.13
7109;BME280;29079;41.930;25.558;2022-07-30T01:26:53;99515.91;;;22.21;52.85
7109;BME280;29079;41.930;25.558;2022-07-30T01:29:24;99517.16;;;22.25;52.51
7109;BME280;29079;41.930;25.558;2022-07-30T01:31:57;99518.84;;;22.13;53.15
7109;BME280;29079;41.930;25.558;2022-07-30T01:34:31;99513.41;;;22.13;53.03
7109;BME280;29079;41.930;25.558;2022-07-30T01:37:03;99513.03;;;22.02;53.21
7109;BME280;29079;41.930;25.558;2022-07-30T01:39:36;99508.88;;;21.93;53.61
7109;BME280;29079;41.930;25.558;2022-07-30T01:42:10;99511.81;;;21.91;53.48
7109;BME280;29079;41.930;25.558;2022-07-30T01:44:44;99505.53;;;21.71;54.30
7109;BME280;29079;41.930;25.558;2022-07-30T01:47:16;99503.84;;;21.56;54.83
7109;BME280;29079;41.930;25.558;2022-07-30T01:49:48;99503.44;;;21.80;54.17
7109;BME280;29079;41.930;25.558;2022-07-30T01:52:20;99500.09;;;21.71;54.31
7109;BME280;29079;41.930;25.558;2022-07-30T01:54:53;99496.34;;;21.72;54.37
7109;BME280;29079;41.930;25.558;2022-07-30T01:57:26;99506.38;;;21.65;54.36
7109;BME280;29079;41.930;25.558;2022-07-30T01:59:59;99502.00;;;21.57;54.88
7109;BME280;29079;41.930;25.558;2022-07-30T02:02:30;99503.03;;;21.56;54.86
7109;BME280;29079;41.930;25.558;2022-07-30T02:05:01;99496.56;;;21.57;54.85
7109;BME280;29079;41.930;25.558;2022-07-30T02:07:36;99510.97;;;21.51;55.08
7109;BME280;29079;41.930;25.558;2022-07-30T02:10:12;99493.19;;;21.42;55.29
7109;BME280;29079;41.930;25.558;2022-07-30T02:12:49;99495.69;;;21.36;55.54
7109;BME280;29079;41.930;25.558;2022-07-30T02:15:24;99495.69;;;21.43;55.42
7109;BME280;29079;41.930;25.558;2022-07-30T02:18:00;99497.31;;;21.11;56.35
7109;BME280;29079;41.930;25.558;2022-07-30T02:20:32;99494.84;;;21.29;55.97
7109;BME280;29079;41.930;25.558;2022-07-30T02:23:09;99500.25;;;21.09;56.35
7109;BME280;29079;41.930;25.558;2022-07-30T02:25:43;99499.81;;;20.99;56.94
7109;BME280;29079;41.930;25.558;2022-07-30T02:28:18;99492.50;;;21.13;56.40
7109;BME280;29079;41.930;25.558;2022-07-30T02:30:57;99490.66;;;21.27;56.34
7109;BME280;29079;41.930;25.558;2022-07-30T02:33:33;99494.66;;;21.31;56.09
7109;BME280;29079;41.930;25.558;2022-07-30T02:36:17;99497.34;;;21.24;56.51
7109;BME280;29079;41.930;25.558;2022-07-30T02:38:48;99486.72;;;21.29;56.31
7109;BME280;29079;41.930;25.558;2022-07-30T02:41:21;99467.69;;;21.22;56.38
7109;BME280;29079;41.930;25.558;2022-07-30T02:43:54;99492.53;;;21.19;56.80
7109;BME280;29079;41.930;25.558;2022-07-30T02:46:26;99486.50;;;21.17;56.59
7109;BME280;29079;41.930;25.558;2022-07-30T02:48:57;99485.00;;;21.08;56.96
7109;BME280;29079;41.930;25.558;2022-07-30T02:51:28;99481.84;;;20.98;57.25
7109;BME280;29079;41.930;25.558;2022-07-30T02:54:00;99480.81;;;20.99;57.56
7109;BME280;29079;41.930;25.558;2022-07-30T02:56:32;99483.47;;;20.79;58.00
7109;BME280;29079;41.930;25.558;2022-07-30T02:59:06;99495.44;;;21.11;56.96
7109;BME280;29079;41.930;25.558;2022-07-30T03:01:37;99495.44;;;21.11;57.02
7109;BME280;29079;41.930;25.558;2022-07-30T03:04:08;99500.28;;;21.29;56.76
7109;BME280;29079;41.930;25.558;2022-07-30T03:06:39;99505.03;;;21.14;57.18
7109;BME280;29079;41.930;25.558;2022-07-30T03:09:11;99502.00;;;20.75;58.22
7109;BME280;29079;41.930;25.558;2022-07-30T03:11:45;99491.81;;;20.84;58.21
7109;BME280;29079;41.930;25.558;2022-07-30T03:14:18;99500.47;;;20.59;59.03
7109;BME280;29079;41.930;25.558;2022-07-30T03:16:54;99495.19;;;20.44;59.42
7109;BME280;29079;41.930;25.558;2022-07-30T03:19:28;99503.53;;;20.43;59.75
7109;BME280;29079;41.930;25.558;2022-07-30T03:22:01;99484.91;;;20.33;59.98
7109;BME280;29079;41.930;25.558;2022-07-30T03:24:32;99495.38;;;20.36;60.19
7109;BME280;29079;41.930;25.558;2022-07-30T03:27:04;99496.91;;;20.52;59.71
7109;BME280;29079;41.930;25.558;2022-07-30T03:29:37;99495.84;;;20.53;59.65
7109;BME280;29079;41.930;25.558;2022-07-30T03:32:09;99504.00;;;20.53;59.43
7109;BME280;29079;41.930;25.558;2022-07-30T03:34:42;99511.25;;;20.46;59.47
7109;BME280;29079;41.930;25.558;2022-07-30T03:37:14;99508.38;;;20.54;59.15
7109;BME280;29079;41.930;25.558;2022-07-30T03:39:45;99504.44;;;20.57;59.01
7109;BME280;29079;41.930;25.558;2022-07-30T03:42:15;99500.31;;;20.67;58.95
7109;BME280;29079;41.930;25.558;2022-07-30T03:44:47;99507.47;;;20.33;59.84
7109;BME280;29079;41.930;25.558;2022-07-30T03:47:19;99506.66;;;20.40;59.79
7109;BME280;29079;41.930;25.558;2022-07-30T03:49:51;99506.75;;;20.60;59.44
7109;BME280;29079;41.930;25.558;2022-07-30T03:52:21;99507.16;;;20.57;59.34
7109;BME280;29079;41.930;25.558;2022-07-30T03:54:51;99515.28;;;20.63;59.28
7109;BME280;29079;41.930;25.558;2022-07-30T03:57:21;99506.00;;;20.79;58.77
7109;BME280;29079;41.930;25.558;2022-07-30T03:59:53;99513.63;;;20.62;59.72
7109;BME280;29079;41.930;25.558;2022-07-30T04:02:23;99508.38;;;20.54;60.38
7109;BME280;29079;41.930;25.558;2022-07-30T04:04:53;99516.50;;;20.54;60.76
7109;BME280;29079;41.930;25.558;2022-07-30T04:07:24;99506.94;;;20.65;60.85
7109;BME280;29079;41.930;25.558;2022-07-30T04:09:54;99510.97;;;20.69;61.10
7109;BME280;29079;41.930;25.558;2022-07-30T04:12:24;99514.72;;;20.68;61.29
7109;BME280;29079;41.930;25.558;2022-07-30T04:14:56;99512.69;;;20.77;61.42
7109;BME280;29079;41.930;25.558;2022-07-30T04:17:32;99509.16;;;20.83;61.56
7109;BME280;29079;41.930;25.558;2022-07-30T04:20:06;99515.06;;;21.07;60.84
7109;BME280;29079;41.930;25.558;2022-07-30T04:22:44;99519.19;;;20.89;61.81
7109;BME280;29079;41.930;25.558;2022-07-30T04:25:14;99515.59;;;20.82;62.22
7109;BME280;29079;41.930;25.558;2022-07-30T04:27:52;99518.16;;;20.97;62.14
7109;BME280;29079;41.930;25.558;2022-07-30T04:30:32;99513.81;;;21.09;62.17
7109;BME280;29079;41.930;25.558;2022-07-30T04:33:03;99518.19;;;21.10;62.29
7109;BME280;29079;41.930;25.558;2022-07-30T04:35:34;99511.31;;;21.08;62.48
7109;BME280;29079;41.930;25.558;2022-07-30T04:38:19;99513.41;;;21.12;62.53
7109;BME280;29079;41.930;25.558;2022-07-30T04:40:49;99514.47;;;21.31;62.09
7109;BME280;29079;41.930;25.558;2022-07-30T04:43:20;99508.41;;;21.22;62.50
7109;BME280;29079;41.930;25.558;2022-07-30T04:45:51;99518.66;;;21.34;62.50
7109;BME280;29079;41.930;25.558;2022-07-30T04:48:22;99512.59;;;21.25;62.89
7109;BME280;29079;41.930;25.558;2022-07-30T04:50:56;99515.50;;;21.30;62.68
7109;BME280;29079;41.930;25.558;2022-07-30T04:53:27;99511.56;;;21.39;62.75
7109;BME280;29079;41.930;25.558;2022-07-30T04:55:59;99511.34;;;21.41;63.05
7109;BME280;29079;41.930;25.558;2022-07-30T04:58:31;99504.06;;;21.55;62.83
7109;BME280;29079;41.930;25.558;2022-07-30T05:01:04;99512.00;;;21.56;62.84
7109;BME280;29079;41.930;25.558;2022-07-30T05:03:45;99512.22;;;21.75;62.67
7109;BME280;29079;41.930;25.558;2022-07-30T05:06:15;99521.81;;;21.98;62.31
7109;BME280;29079;41.930;25.558;2022-07-30T05:08:47;99512.41;;;22.00;62.55
7109;BME280;29079;41.930;25.558;2022-07-30T05:11:17;99515.06;;;22.20;61.88
7109;BME280;29079;41.930;25.558;2022-07-30T05:13:47;99519.66;;;22.40;61.59
7109;BME280;29079;41.930;25.558;2022-07-30T05:16:20;99516.72;;;22.41;61.82
7109;BME280;29079;41.930;25.558;2022-07-30T05:18:50;99524.28;;;22.39;62.03
7109;BME280;29079;41.930;25.558;2022-07-30T05:21:20;99525.06;;;22.53;61.52
7109;BME280;29079;41.930;25.558;2022-07-30T05:23:50;99531.88;;;22.76;60.89
7109;BME280;29079;41.930;25.558;2022-07-30T05:26:21;99519.47;;;22.87;61.05
7109;BME280;29079;41.930;25.558;2022-07-30T05:28:55;99520.63;;;23.04;60.97
7109;BME280;29079;41.930;25.558;2022-07-30T05:31:26;99520.41;;;23.12;62.26
7109;BME280;29079;41.930;25.558;2022-07-30T05:33:59;99531.50;;;23.11;63.13
7109;BME280;29079;41.930;25.558;2022-07-30T05:36:31;99524.63;;;23.40;63.35
7109;BME280;29079;41.930;25.558;2022-07-30T05:39:02;99523.13;;;23.44;64.38
7109;BME280;29079;41.930;25.558;2022-07-30T05:41:33;99527.91;;;23.74;63.31
7109;BME280;29079;41.930;25.558;2022-07-30T05:44:03;99530.97;;;23.85;63.11
7109;BME280;29079;41.930;25.558;2022-07-30T05:46:35;99524.22;;;23.94;63.25
7109;BME280;29079;41.930;25.558;2022-07-30T05:49:05;99532.97;;;23.96;63.44
7109;BME280;29079;41.930;25.558;2022-07-30T05:51:35;99528.63;;;24.13;62.81
7109;BME280;29079;41.930;25.558;2022-07-30T05:54:05;99535.59;;;24.28;62.53
7109;BME280;29079;41.930;25.558;2022-07-30T05:56:36;99531.38;;;24.32;62.87
7109;BME280;29079;41.930;25.558;2022-07-30T05:59:05;99538.50;;;24.33;63.95
7109;BME280;29079;41.930;25.558;2022-07-30T06:01:37;99533.19;;;24.38;64.00
7109;BME280;29079;41.930;25.558;2022-07-30T06:04:07;99535.50;;;24.60;63.10
7109;BME280;29079;41.930;25.558;2022-07-30T06:06:37;99535.94;;;24.75;62.21
7109;BME280;29079;41.930;25.558;2022-07-30T06:09:07;99534.09;;;24.88;61.54
7109;BME280;29079;41.930;25.558;2022-07-30T06:11:37;99529.28;;;24.71;62.15
7109;BME280;29079;41.930;25.558;2022-07-30T06:14:08;99535.47;;;24.78;62.22
7109;BME280;29079;41.930;25.558;2022-07-30T06:16:42;99512.72;;;24.84;61.66
7109;BME280;29079;41.930;25.558;2022-07-30T06:19:13;99535.72;;;25.07;61.05
7109;BME280;29079;41.930;25.558;2022-07-30T06:21:48;99525.03;;;25.06;61.18
7109;BME280;29079;41.930;25.558;2022-07-30T06:24:34;99522.59;;;25.16;60.52
7109;BME280;29079;41.930;25.558;2022-07-30T06:27:05;99516.41;;;25.20;59.64
7109;BME280;29079;41.930;25.558;2022-07-30T06:29:35;99504.25;;;25.35;58.75
7109;BME280;29079;41.930;25.558;2022-07-30T06:32:07;99504.03;;;25.48;58.60
7109;BME280;29079;41.930;25.558;2022-07-30T06:34:37;99510.84;;;25.58;58.28
7109;BME280;29079;41.930;25.558;2022-07-30T06:37:08;99516.91;;;25.60;56.56
7109;BME280;29079;41.930;25.558;2022-07-30T06:39:38;99512.00;;;25.62;56.58
7109;BME280;29079;41.930;25.558;2022-07-30T06:42:26;99505.38;;;25.81;56.17
7109;BME280;29079;41.930;25.558;2022-07-30T06:44:56;99506.34;;;25.87;56.10
7109;BME280;29079;41.930;25.558;2022-07-30T06:47:28;99508.13;;;25.93;55.67
7109;BME280;29079;41.930;25.558;2022-07-30T06:50:00;99492.47;;;26.00;55.21
7109;BME280;29079;41.930;25.558;2022-07-30T06:52:31;99500.16;;;25.92;55.18
7109;BME280;29079;41.930;25.558;2022-07-30T06:55:02;99494.72;;;26.03;54.79
7109;BME280;29079;41.930;25.558;2022-07-30T06:57:32;99492.81;;;26.16;54.32
7109;BME280;29079;41.930;25.558;2022-07-30T07:00:10;99492.78;;;26.28;53.70
7109;BME280;29079;41.930;25.558;2022-07-30T07:02:42;99494.56;;;26.34;53.05
7109;BME280;29079;41.930;25.558;2022-07-30T07:05:12;99493.72;;;26.45;52.53
7109;BME280;29079;41.930;25.558;2022-07-30T07:07:42;99486.19;;;26.52;52.32
7109;BME280;29079;41.930;25.558;2022-07-30T07:10:26;99489.50;;;26.54;51.78
7109;BME280;29079;41.930;25.558;2022-07-30T07:12:59;99482.47;;;26.58;51.02
7109;BME280;29079;41.930;25.558;2022-07-30T07:15:30;99477.81;;;26.59;51.35
7109;BME280;29079;41.930;25.558;2022-07-30T07:18:07;99475.56;;;26.68;50.68
7109;BME280;29079;41.930;25.558;2022-07-30T07:20:37;99483.06;;;26.72;50.03
7109;BME280;29079;41.930;25.558;2022-07-30T07:23:07;99484.59;;;26.80;49.72
7109;BME280;29079;41.930;25.558;2022-07-30T07:25:40;99474.94;;;26.78;50.45
7109;BME280;29079;41.930;25.558;2022-07-30T07:28:10;99477.38;;;26.91;49.29
7109;BME280;29079;41.930;25.558;2022-07-30T07:30:41;99478.97;;;27.04;49.29
7109;BME280;29079;41.930;25.558;2022-07-30T07:33:13;99475.03;;;27.12;49.01
7109;BME280;29079;41.930;25.558;2022-07-30T07:35:46;99476.00;;;27.05;50.17
7109;BME280;29079;41.930;25.558;2022-07-30T07:38:18;99473.63;;;27.09;48.96
7109;BME280;29079;41.930;25.558;2022-07-30T07:40:48;99479.53;;;27.18;48.39
7109;BME280;29079;41.930;25.558;2022-07-30T07:43:18;99478.03;;;27.27;45.96
7109;BME280;29079;41.930;25.558;2022-07-30T07:45:48;99478.88;;;27.27;46.35
7109;BME280;29079;41.930;25.558;2022-07-30T07:48:20;99473.97;;;27.30;46.99
7109;BME280;29079;41.930;25.558;2022-07-30T07:50:50;99476.22;;;27.33;46.36
7109;BME280;29079;41.930;25.558;2022-07-30T07:53:25;99470.84;;;27.38;46.94
7109;BME280;29079;41.930;25.558;2022-07-30T07:55:56;99480.88;;;27.49;46.96
7109;BME280;29079;41.930;25.558;2022-07-30T07:58:27;99477.91;;;27.51;44.98
7109;BME280;29079;41.930;25.558;2022-07-30T08:00:59;99474.50;;;27.60;45.05
7109;BME280;29079;41.930;25.558;2022-07-30T08:03:31;99469.84;;;27.61;44.67
7109;BME280;29079;41.930;25.558;2022-07-30T08:06:01;99473.06;;;27.75;44.85
7109;BME280;29079;41.930;25.558;2022-07-30T08:08:34;99461.44;;;27.85;43.87
7109;BME280;29079;41.930;25.558;2022-07-30T08:11:05;99461.56;;;27.95;43.36
7109;BME280;29079;41.930;25.558;2022-07-30T08:13:36;99466.81;;;27.96;42.92
7109;BME280;29079;41.930;25.558;2022-07-30T08:16:20;99460.59;;;28.01;40.82
7109;BME280;29079;41.930;25.558;2022-07-30T08:18:52;99465.56;;;28.04;41.40
7109;BME280;29079;41.930;25.558;2022-07-30T08:21:23;99465.91;;;28.08;40.90
7109;BME280;29079;41.930;25.558;2022-07-30T08:23:52;99471.91;;;28.05;41.98
7109;BME280;29079;41.930;25.558;2022-07-30T08:26:23;99452.56;;;28.17;40.61
7109;BME280;29079;41.930;25.558;2022-07-30T08:28:53;99444.00;;;28.13;40.13
7109;BME280;29079;41.930;25.558;2022-07-30T08:31:23;99454.69;;;28.31;40.37
7109;BME280;29079;41.930;25.558;2022-07-30T08:33:54;99448.78;;;28.45;40.53
7109;BME280;29079;41.930;25.558;2022-07-30T08:36:24;99458.44;;;28.47;41.08
7109;BME280;29079;41.930;25.558;2022-07-30T08:38:54;99438.47;;;28.52;40.17
7109;BME280;29079;41.930;25.558;2022-07-30T08:41:25;99442.69;;;28.38;40.92
7109;BME280;29079;41.930;25.558;2022-07-30T08:43:57;99447.19;;;28.49;39.45
7109;BME280;29079;41.930;25.558;2022-07-30T08:46:30;99441.78;;;28.54;40.25
7109;BME280;29079;41.930;25.558;2022-07-30T08:49:02;99427.47;;;28.52;39.30
7109;BME280;29079;41.930;25.558;2022-07-30T08:51:38;99436.97;;;28.61;39.08
7109;BME280;29079;41.930;25.558;2022-07-30T08:54:08;99435.41;;;28.71;38.71
7109;BME280;29079;41.930;25.558;2022-07-30T08:56:38;99430.25;;;28.74;39.51
7109;BME280;29079;41.930;25.558;2022-07-30T08:59:10;99426.38;;;28.75;38.21
7109;BME280;29079;41.930;25.558;2022-07-30T09:01:40;99419.34;;;28.85;38.29
7109;BME280;29079;41.930;25.558;2022-07-30T09:04:11;99409.19;;;28.85;38.88
7109;BME280;29079;41.930;25.558;2022-07-30T09:06:41;99415.00;;;28.89;38.06
7109;BME280;29079;41.930;25.558;2022-07-30T09:09:11;99419.66;;;28.88;38.75
7109;BME280;29079;41.930;25.558;2022-07-30T09:11:42;99403.16;;;28.88;38.57
7109;BME280;29079;41.930;25.558;2022-07-30T09:14:13;99409.06;;;29.02;39.12
7109;BME280;29079;41.930;25.558;2022-07-30T09:16:44;99407.41;;;29.01;37.99
7109;BME280;29079;41.930;25.558;2022-07-30T09:19:17;99411.03;;;29.07;38.19
7109;BME280;29079;41.930;25.558;2022-07-30T09:21:55;99415.06;;;29.26;37.55
7109;BME280;29079;41.930;25.558;2022-07-30T09:24:26;99412.84;;;29.23;37.82
7109;BME280;29079;41.930;25.558;2022-07-30T09:26:57;99416.19;;;29.30;37.63
7109;BME280;29079;41.930;25.558;2022-07-30T09:29:29;99419.88;;;29.41;36.55
7109;BME280;29079;41.930;25.558;2022-07-30T09:32:00;99415.97;;;29.37;36.54
7109;BME280;29079;41.930;25.558;2022-07-30T09:34:34;99405.22;;;29.30;36.55
7109;BME280;29079;41.930;25.558;2022-07-30T09:37:17;99403.06;;;29.38;37.25
7109;BME280;29079;41.930;25.558;2022-07-30T09:39:47;99389.63;;;29.41;37.10
7109;BME280;29079;41.930;25.558;2022-07-30T09:42:27;99393.84;;;29.54;36.89
7109;BME280;29079;41.930;25.558;2022-07-30T09:45:05;99383.28;;;29.41;37.83
7109;BME280;29079;41.930;25.558;2022-07-30T09:47:37;99384.19;;;29.51;37.40
7109;BME280;29079;41.930;25.558;2022-07-30T09:50:11;99386.69;;;29.58;36.36
7109;BME280;29079;41.930;25.558;2022-07-30T09:53:06;99365.44;;;29.43;36.67
7109;BME280;29079;41.930;25.558;2022-07-30T09:55:40;99387.03;;;29.67;35.80
7109;BME280;29079;41.930;25.558;2022-07-30T09:58:11;99381.47;;;29.57;36.46
7109;BME280;29079;41.930;25.558;2022-07-30T10:00:56;99379.53;;;29.52;36.81
7109;BME280;29079;41.930;25.558;2022-07-30T10:03:27;99375.16;;;29.56;37.29
7109;BME280;29079;41.930;25.558;2022-07-30T10:06:11;99379.59;;;29.62;36.35
7109;BME280;29079;41.930;25.558;2022-07-30T10:08:45;99380.69;;;29.61;36.17
7109;BME280;29079;41.930;25.558;2022-07-30T10:11:17;99377.69;;;29.68;36.18
7109;BME280;29079;41.930;25.558;2022-07-30T10:13:53;99366.47;;;29.75;36.30
7109;BME280;29079;41.930;25.558;2022-07-30T10:16:28;99354.13;;;29.77;35.14
7109;BME280;29079;41.930;25.558;2022-07-30T10:18:58;99354.97;;;29.83;35.80
7109;BME280;29079;41.930;25.558;2022-07-30T10:21:30;99344.56;;;29.90;35.36
7109;BME280;29079;41.930;25.558;2022-07-30T10:24:05;99343.69;;;29.84;35.81
7109;BME280;29079;41.930;25.558;2022-07-30T10:26:35;99339.50;;;29.77;37.23
7109;BME280;29079;41.930;25.558;2022-07-30T10:29:05;99335.69;;;29.78;35.86
7109;BME280;29079;41.930;25.558;2022-07-30T10:31:40;99322.53;;;29.85;35.28
7109;BME280;29079;41.930;25.558;2022-07-30T10:34:18;99337.47;;;29.99;35.49
7109;BME280;29079;41.930;25.558;2022-07-30T10:36:57;99326.44;;;29.99;34.74
7109;BME280;29079;41.930;25.558;2022-07-30T10:39:36;99320.41;;;30.08;34.82
7109;BME280;29079;41.930;25.558;2022-07-30T10:42:18;99320.94;;;30.04;35.19
7109;BME280;29079;41.930;25.558;2022-07-30T10:45:11;99303.41;;;30.21;34.42
7109;BME280;29079;41.930;25.558;2022-07-30T10:47:46;99321.00;;;30.20;35.26
7109;BME280;29079;41.930;25.558;2022-07-30T10:50:19;99326.50;;;30.20;34.69
7109;BME280;29079;41.930;25.558;2022-07-30T10:52:53;99327.63;;;30.29;34.09
7109;BME280;29079;41.930;25.558;2022-07-30T10:55:25;99319.38;;;30.34;33.95
7109;BME280;29079;41.930;25.558;2022-07-30T10:58:09;99325.16;;;30.33;33.70
7109;BME280;29079;41.930;25.558;2022-07-30T11:00:58;99302.84;;;30.29;34.48
7109;BME280;29079;41.930;25.558;2022-07-30T11:03:29;99294.31;;;30.31;33.55
7109;BME280;29079;41.930;25.558;2022-07-30T11:06:25;99289.38;;;30.33;34.21
7109;BME280;29079;41.930;25.558;2022-07-30T11:08:58;99289.13;;;30.34;33.83
7109;BME280;29079;41.930;25.558;2022-07-30T11:11:47;99294.91;;;30.33;34.45
7109;BME280;29079;41.930;25.558;2022-07-30T11:14:58;99296.00;;;30.27;35.13
7109;BME280;29079;41.930;25.558;2022-07-30T11:18:06;99282.22;;;30.32;34.58
7109;BME280;29079;41.930;25.558;2022-07-30T11:20:40;99287.50;;;30.44;34.54
7109;BME280;29079;41.930;25.558;2022-07-30T11:23:37;99288.91;;;30.62;33.68
7109;BME280;29079;41.930;25.558;2022-07-30T11:26:10;99288.59;;;30.48;34.57
7109;BME280;29079;41.930;25.558;2022-07-30T11:28:43;99277.03;;;30.51;34.28
7109;BME280;29079;41.930;25.558;2022-07-30T11:31:31;99282.28;;;30.83;33.41
7109;BME280;29079;41.930;25.558;2022-07-30T11:34:26;99270.44;;;30.83;31.73
7109;BME280;29079;41.930;25.558;2022-07-30T11:37:03;99273.19;;;30.72;32.53
7109;BME280;29079;41.930;25.558;2022-07-30T11:40:08;99274.03;;;30.78;32.94
7109;BME280;29079;41.930;25.558;2022-07-30T11:42:41;99261.06;;;30.84;33.92
7109;BME280;29079;41.930;25.558;2022-07-30T11:45:22;99252.25;;;30.87;33.48
7109;BME280;29079;41.930;25.558;2022-07-30T11:47:56;99237.94;;;30.80;33.81
7109;BME280;29079;41.930;25.558;2022-07-30T11:50:30;99253.06;;;30.77;34.52
7109;BME280;29079;41.930;25.558;2022-07-30T11:53:01;99248.97;;;30.80;34.28
7109;BME280;29079;41.930;25.558;2022-07-30T11:55:37;99252.22;;;30.97;33.31
7109;BME280;29079;41.930;25.558;2022-07-30T11:58:10;99247.56;;;30.93;33.22
7109;BME280;29079;41.930;25.558;2022-07-30T12:00:42;99237.13;;;30.79;33.67
7109;BME280;29079;41.930;25.558;2022-07-30T12:03:16;99233.81;;;30.77;34.03
7109;BME280;29079;41.930;25.558;2022-07-30T12:05:47;99229.66;;;30.95;33.67
7109;BME280;29079;41.930;25.558;2022-07-30T12:08:21;99220.84;;;31.03;33.93
7109;BME280;29079;41.930;25.558;2022-07-30T12:11:03;99222.50;;;31.04;33.60
7109;BME280;29079;41.930;25.558;2022-07-30T12:13:36;99224.41;;;30.99;33.40
7109;BME280;29079;41.930;25.558;2022-07-30T12:16:15;99209.00;;;30.93;32.82
7109;BME280;29079;41.930;25.558;2022-07-30T12:18:45;99210.69;;;30.83;33.83
7109;BME280;29079;41.930;25.558;2022-07-30T12:21:16;99213.97;;;30.80;34.21
7109;BME280;29079;41.930;25.558;2022-07-30T12:23:53;99206.25;;;31.03;34.02
7109;BME280;29079;41.930;25.558;2022-07-30T12:26:26;99206.53;;;31.06;34.48
7109;BME280;29079;41.930;25.558;2022-07-30T12:29:00;99200.47;;;30.99;34.82
7109;BME280;29079;41.930;25.558;2022-07-30T12:31:33;99199.06;;;31.02;34.01
7109;BME280;29079;41.930;25.558;2022-07-30T12:34:20;99191.31;;;31.19;33.62
7109;BME280;29079;41.930;25.558;2022-07-30T12:36:51;99182.78;;;31.11;34.31
7109;BME280;29079;41.930;25.558;2022-07-30T12:39:23;99181.16;;;31.10;34.64
7109;BME280;29079;41.930;25.558;2022-07-30T12:41:56;99170.44;;;31.03;34.99
7109;BME280;29079;41.930;25.558;2022-07-30T12:44:38;99168.19;;;31.15;34.70
7109;BME280;29079;41.930;25.558;2022-07-30T12:47:20;99163.22;;;31.12;35.05
7109;BME280;29079;41.930;25.558;2022-07-30T12:49:52;99159.41;;;31.03;34.87
7109;BME280;29079;41.930;25.558;2022-07-30T12:52:25;99154.13;;;31.17;34.99
7109;BME280;29079;41.930;25.558;2022-07-30T12:55:01;99152.41;;;31.31;34.67
7109;BME280;29079;41.930;25.558;2022-07-30T12:57:54;99156.84;;;31.22;35.87
7109;BME280;29079;41.930;25.558;2022-07-30T13:00:27;99146.94;;;31.21;34.40
7109;BME280;29079;41.930;25.558;2022-07-30T13:02:58;99144.16;;;31.31;35.00
7109;BME280;29079;41.930;25.558;2022-07-30T13:05:42;99134.34;;;31.04;35.40
7109;BME280;29079;41.930;25.558;2022-07-30T13:08:12;99129.06;;;31.18;34.42
7109;BME280;29079;41.930;25.558;2022-07-30T13:10:56;99129.91;;;31.08;34.96
7109;BME280;29079;41.930;25.558;2022-07-30T13:13:28;99128.81;;;31.04;34.71
7109;BME280;29079;41.930;25.558;2022-07-30T13:16:05;99136.72;;;31.27;33.69
7109;BME280;29079;41.930;25.558;2022-07-30T13:18:36;99122.69;;;31.23;34.94
7109;BME280;29079;41.930;25.558;2022-07-30T13:21:06;99121.59;;;31.14;34.53
7109;BME280;29079;41.930;25.558;2022-07-30T13:23:38;99107.88;;;31.03;34.08
7109;BME280;29079;41.930;25.558;2022-07-30T13:26:09;99111.72;;;31.07;34.05
7109;BME280;29079;41.930;25.558;2022-07-30T13:28:39;99108.63;;;31.19;33.67
7109;BME280;29079;41.930;25.558;2022-07-30T13:31:11;99099.06;;;31.06;34.41
7109;BME280;29079;41.930;25.558;2022-07-30T13:33:42;99086.41;;;31.00;34.67